sensor_id;sensor_type;location;lat;lon;timestamp;pressure;altitude;pressure_sealevel;temperature;humidity
10668;BME280;5382;42.136;24.796;2023-06-22T00:01:16;100076.38;;;23.23;100.00
10668;BME280;5382;42.136;24.796;2023-06-22T00:03:42;100074.91;;;23.21;100.00
10668;BME280;5382;42.136;24.796;2023-06-22T00:06:09;100075.53;;;23.23;100.00
10668;BME280;5382;42.136;24.796;2023-06-22T00:08:36;100078.97;;;23.17;100.00
10668;BME280;5382;42.136;24.796;2023-06-22T00:11:04;100087.09;;;23.17;100.00
10668;BME280;5382;42.136;24.796;2023-06-22T00:13:31;100083.09;;;22.98;100.00
10668;BME280;5382;42.136;24.796;2023-06-22T00:15:58;100078.03;;;22.95;100.00
10668;BME280;5382;42.136;24.796;2023-06-22T00:18:25;100075.53;;;22.93;100.00
10668;BME280;5382;42.136;24.796;2023-06-22T00:20:54;100081.25;;;22.98;100.00
10668;BME280;5382;42.136;24.796;2023-06-22T00:23:23;100088.41;;;23.06;100.00
10668;BME280;5382;42.136;24.796;2023-06-22T00:25:50;100089.41;;;23.05;100.00
10668;BME280;5382;42.136;24.796;2023-06-22T00:28:19;100089.69;;;22.95;100.00
10668;BME280;5382;42.136;24.796;2023-06-22T00:30:46;100094.50;;;22.85;100.00
10668;BME280;5382;42.136;24.796;2023-06-22T00:33:13;100093.59;;;22.93;100.00
10668;BME280;5382;42.136;24.796;2023-06-22T00:35:41;100065.75;;;22.77;100.00
10668;BME280;5382;42.136;24.796;2023-06-22T00:38:08;100104.56;;;22.91;100.00
10668;BME280;5382;42.136;24.796;2023-06-22T00:40:35;100101.47;;;22.94;100.00
10668;BME280;5382;42.136;24.796;2023-06-22T00:43:03;100087.91;;;22.88;100.00
10668;BME280;5382;42.136;24.796;2023-06-22T00:45:31;100100.97;;;22.99;100.00
10668;BME280;5382;42.136;24.796;2023-06-22T00:47:59;100080.25;;;22.76;100.00
10668;BME280;5382;42.136;24.796;2023-06-22T00:50:27;100091.19;;;22.98;100.00
10668;BME280;5382;42.136;24.796;2023-06-22T00:53:00;100097.06;;;23.01;100.00
10668;BME280;5382;42.136;24.796;2023-06-22T00:55:30;100101.25;;;23.04;100.00
10668;BME280;5382;42.136;24.796;2023-06-22T00:57:57;100101.06;;;23.05;100.00
10668;BME280;5382;42.136;24.796;2023-06-22T01:00:24;100101.53;;;23.09;100.00
10668;BME280;5382;42.136;24.796;2023-06-22T01:02:53;100098.16;;;23.07;100.00
10668;BME280;5382;42.136;24.796;2023-06-22T01:05:21;100104.03;;;23.11;100.00
10668;BME280;5382;42.136;24.796;2023-06-22T01:08:00;100089.78;;;23.02;100.00
10668;BME280;5382;42.136;24.796;2023-06-22T01:10:37;100098.66;;;23.11;100.00
10668;BME280;5382;42.136;24.796;2023-06-22T01:13:10;100089.41;;;23.05;100.00
10668;BME280;5382;42.136;24.796;2023-06-22T01:15:45;100101.34;;;23.11;100.00
10668;BME280;5382;42.136;24.796;2023-06-22T01:18:17;100105.97;;;23.17;100.00
10668;BME280;5382;42.136;24.796;2023-06-22T01:20:45;100092.69;;;23.00;100.00
10668;BME280;5382;42.136;24.796;2023-06-22T01:23:22;100106.72;;;22.96;100.00
10668;BME280;5382;42.136;24.796;2023-06-22T01:25:59;100108.31;;;23.05;100.00
10668;BME280;5382;42.136;24.796;2023-06-22T01:28:45;100093.25;;;23.11;100.00
10668;BME280;5382;42.136;24.796;2023-06-22T01:31:15;100094.06;;;23.11;100.00
10668;BME280;5382;42.136;24.796;2023-06-22T01:33:44;100083.72;;;23.00;100.00
10668;BME280;5382;42.136;24.796;2023-06-22T01:36:13;100090.34;;;23.12;100.00
10668;BME280;5382;42.136;24.796;2023-06-22T01:38:42;100086.16;;;23.10;100.00
10668;BME280;5382;42.136;24.796;2023-06-22T01:41:09;100092.88;;;23.14;100.00
10668;BME280;5382;42.136;24.796;2023-06-22T01:43:37;100091.28;;;23.19;100.00
10668;BME280;5382;42.136;24.796;2023-06-22T01:46:06;100086.31;;;23.23;100.00
10668;BME280;5382;42.136;24.796;2023-06-22T01:48:34;100083.44;;;23.24;100.00
10668;BME280;5382;42.136;24.796;2023-06-22T01:51:01;100088.41;;;23.21;100.00
10668;BME280;5382;42.136;24.796;2023-06-22T01:53:28;100085.50;;;23.22;100.00
10668;BME280;5382;42.136;24.796;2023-06-22T01:55:55;100088.84;;;23.24;100.00
10668;BME280;5382;42.136;24.796;2023-06-22T01:58:23;100092.75;;;23.22;100.00
10668;BME280;5382;42.136;24.796;2023-06-22T02:00:55;100096.66;;;23.19;100.00
10668;BME280;5382;42.136;24.796;2023-06-22T02:03:30;100085.31;;;23.09;100.00
10668;BME280;5382;42.136;24.796;2023-06-22T02:06:02;100094.47;;;23.08;100.00
10668;BME280;5382;42.136;24.796;2023-06-22T02:08:32;100098.16;;;23.07;100.00
10668;BME280;5382;42.136;24.796;2023-06-22T02:11:02;100099.56;;;23.03;100.00
10668;BME280;5382;42.136;24.796;2023-06-22T02:13:30;100102.31;;;22.95;100.00
10668;BME280;5382;42.136;24.796;2023-06-22T02:16:00;100095.06;;;22.95;100.00
10668;BME280;5382;42.136;24.796;2023-06-22T02:18:28;100106.59;;;22.89;100.00
10668;BME280;5382;42.136;24.796;2023-06-22T02:20:55;100089.94;;;22.85;100.00
10668;BME280;5382;42.136;24.796;2023-06-22T02:23:22;100107.91;;;22.93;100.00
10668;BME280;5382;42.136;24.796;2023-06-22T02:25:49;100092.75;;;22.77;100.00
10668;BME280;5382;42.136;24.796;2023-06-22T02:28:16;100106.22;;;22.62;100.00
10668;BME280;5382;42.136;24.796;2023-06-22T02:30:43;100111.97;;;22.59;100.00
10668;BME280;5382;42.136;24.796;2023-06-22T02:33:09;100111.47;;;22.56;100.00
10668;BME280;5382;42.136;24.796;2023-06-22T02:35:38;100114.91;;;22.50;100.00
10668;BME280;5382;42.136;24.796;2023-06-22T02:38:05;100109.69;;;22.48;100.00
10668;BME280;5382;42.136;24.796;2023-06-22T02:40:33;100116.56;;;22.36;100.00
10668;BME280;5382;42.136;24.796;2023-06-22T02:43:00;100118.69;;;22.40;100.00
10668;BME280;5382;42.136;24.796;2023-06-22T02:45:28;100116.81;;;22.26;100.00
10668;BME280;5382;42.136;24.796;2023-06-22T02:47:55;100123.50;;;22.30;100.00
10668;BME280;5382;42.136;24.796;2023-06-22T02:50:22;100110.59;;;22.17;100.00
10668;BME280;5382;42.136;24.796;2023-06-22T02:52:50;100121.94;;;22.13;100.00
10668;BME280;5382;42.136;24.796;2023-06-22T02:55:17;100128.41;;;22.04;100.00
10668;BME280;5382;42.136;24.796;2023-06-22T02:57:44;100116.63;;;22.05;100.00
10668;BME280;5382;42.136;24.796;2023-06-22T03:00:14;100118.94;;;22.08;100.00
10668;BME280;5382;42.136;24.796;2023-06-22T03:02:43;100121.72;;;22.23;100.00
10668;BME280;5382;42.136;24.796;2023-06-22T03:05:10;100134.28;;;22.30;100.00
10668;BME280;5382;42.136;24.796;2023-06-22T03:07:39;100137.28;;;22.35;100.00
10668;BME280;5382;42.136;24.796;2023-06-22T03:10:09;100137.22;;;22.43;100.00
10668;BME280;5382;42.136;24.796;2023-06-22T03:12:36;100139.56;;;22.47;100.00
10668;BME280;5382;42.136;24.796;2023-06-22T03:15:05;100143.47;;;22.44;100.00
10668;BME280;5382;42.136;24.796;2023-06-22T03:17:32;100149.03;;;22.42;100.00
10668;BME280;5382;42.136;24.796;2023-06-22T03:19:59;100125.56;;;22.28;100.00
10668;BME280;5382;42.136;24.796;2023-06-22T03:22:26;100143.09;;;22.47;100.00
10668;BME280;5382;42.136;24.796;2023-06-22T03:24:53;100151.31;;;22.54;100.00
10668;BME280;5382;42.136;24.796;2023-06-22T03:27:21;100142.09;;;22.63;100.00
10668;BME280;5382;42.136;24.796;2023-06-22T03:29:48;100123.84;;;22.50;100.00
10668;BME280;5382;42.136;24.796;2023-06-22T03:32:15;100144.63;;;22.64;100.00
10668;BME280;5382;42.136;24.796;2023-06-22T03:34:41;100150.31;;;22.70;100.00
10668;BME280;5382;42.136;24.796;2023-06-22T03:37:13;100155.34;;;22.73;100.00
10668;BME280;5382;42.136;24.796;2023-06-22T03:39:40;100157.84;;;22.74;100.00
10668;BME280;5382;42.136;24.796;2023-06-22T03:42:07;100160.72;;;22.73;100.00
10668;BME280;5382;42.136;24.796;2023-06-22T03:44:35;100165.31;;;22.49;100.00
10668;BME280;5382;42.136;24.796;2023-06-22T03:47:03;100161.97;;;22.47;100.00
10668;BME280;5382;42.136;24.796;2023-06-22T03:49:32;100165.44;;;22.33;100.00
10668;BME280;5382;42.136;24.796;2023-06-22T03:52:00;100142.31;;;22.15;100.00
10668;BME280;5382;42.136;24.796;2023-06-22T03:54:28;100165.91;;;22.13;100.00
10668;BME280;5382;42.136;24.796;2023-06-22T03:56:55;100166.72;;;22.14;100.00
10668;BME280;5382;42.136;24.796;2023-06-22T03:59:23;100161.69;;;22.11;100.00
10668;BME280;5382;42.136;24.796;2023-06-22T04:01:51;100134.22;;;21.92;100.00
10668;BME280;5382;42.136;24.796;2023-06-22T04:04:18;100147.75;;;22.07;100.00
10668;BME280;5382;42.136;24.796;2023-06-22T04:06:45;100158.13;;;22.18;100.00
10668;BME280;5382;42.136;24.796;2023-06-22T04:09:11;100165.13;;;22.28;100.00
10668;BME280;5382;42.136;24.796;2023-06-22T04:11:38;100158.84;;;22.35;100.00
10668;BME280;5382;42.136;24.796;2023-06-22T04:14:05;100157.19;;;22.34;100.00
10668;BME280;5382;42.136;24.796;2023-06-22T04:16:32;100155.84;;;22.30;100.00
10668;BME280;5382;42.136;24.796;2023-06-22T04:19:00;100164.06;;;22.37;100.00
10668;BME280;5382;42.136;24.796;2023-06-22T04:21:27;100170.72;;;22.49;100.00
10668;BME280;5382;42.136;24.796;2023-06-22T04:23:54;100170.81;;;22.56;100.00
10668;BME280;5382;42.136;24.796;2023-06-22T04:26:21;100167.94;;;22.57;100.00
10668;BME280;5382;42.136;24.796;2023-06-22T04:28:48;100169.75;;;22.65;100.00
10668;BME280;5382;42.136;24.796;2023-06-22T04:31:17;100168.72;;;22.66;100.00
10668;BME280;5382;42.136;24.796;2023-06-22T04:33:44;100162.19;;;22.60;100.00
10668;BME280;5382;42.136;24.796;2023-06-22T04:36:12;100165.94;;;22.74;100.00
10668;BME280;5382;42.136;24.796;2023-06-22T04:38:40;100147.94;;;22.52;100.00
10668;BME280;5382;42.136;24.796;2023-06-22T04:41:07;100169.63;;;22.58;100.00
10668;BME280;5382;42.136;24.796;2023-06-22T04:43:39;100174.31;;;22.64;100.00
10668;BME280;5382;42.136;24.796;2023-06-22T04:46:06;100177.28;;;22.70;100.00
10668;BME280;5382;42.136;24.796;2023-06-22T04:48:33;100169.50;;;22.75;100.00
10668;BME280;5382;42.136;24.796;2023-06-22T04:51:00;100162.03;;;22.77;100.00
10668;BME280;5382;42.136;24.796;2023-06-22T04:53:31;100171.06;;;22.84;100.00
10668;BME280;5382;42.136;24.796;2023-06-22T04:55:58;100170.16;;;22.92;100.00
10668;BME280;5382;42.136;24.796;2023-06-22T04:58:25;100170.16;;;22.92;100.00
10668;BME280;5382;42.136;24.796;2023-06-22T05:00:54;100170.66;;;22.95;100.00
10668;BME280;5382;42.136;24.796;2023-06-22T05:03:22;100160.25;;;23.07;100.00
10668;BME280;5382;42.136;24.796;2023-06-22T05:05:51;100154.75;;;23.15;100.00
10668;BME280;5382;42.136;24.796;2023-06-22T05:08:19;100149.91;;;23.25;100.00
10668;BME280;5382;42.136;24.796;2023-06-22T05:10:47;100155.69;;;23.37;100.00
10668;BME280;5382;42.136;24.796;2023-06-22T05:13:14;100151.56;;;23.41;100.00
10668;BME280;5382;42.136;24.796;2023-06-22T05:15:40;100157.56;;;23.37;100.00
10668;BME280;5382;42.136;24.796;2023-06-22T05:18:07;100161.81;;;23.46;100.00
10668;BME280;5382;42.136;24.796;2023-06-22T05:20:34;100163.97;;;23.50;100.00
10668;BME280;5382;42.136;24.796;2023-06-22T05:23:01;100151.00;;;23.61;100.00
10668;BME280;5382;42.136;24.796;2023-06-22T05:25:28;100142.13;;;23.67;100.00
10668;BME280;5382;42.136;24.796;2023-06-22T05:27:59;100110.38;;;23.54;100.00
10668;BME280;5382;42.136;24.796;2023-06-22T05:30:27;100147.03;;;23.93;100.00
10668;BME280;5382;42.136;24.796;2023-06-22T05:32:53;100166.47;;;24.03;100.00
10668;BME280;5382;42.136;24.796;2023-06-22T05:35:20;100156.97;;;24.07;100.00
10668;BME280;5382;42.136;24.796;2023-06-22T05:37:47;100168.16;;;24.04;100.00
10668;BME280;5382;42.136;24.796;2023-06-22T05:40:14;100159.97;;;23.98;100.00
10668;BME280;5382;42.136;24.796;2023-06-22T05:42:41;100163.41;;;24.06;100.00
10668;BME280;5382;42.136;24.796;2023-06-22T05:45:09;100157.88;;;24.14;100.00
10668;BME280;5382;42.136;24.796;2023-06-22T05:47:36;100152.88;;;24.11;100.00
10668;BME280;5382;42.136;24.796;2023-06-22T05:50:04;100162.31;;;24.22;100.00
10668;BME280;5382;42.136;24.796;2023-06-22T05:52:33;100159.81;;;24.21;100.00
10668;BME280;5382;42.136;24.796;2023-06-22T05:55:02;100155.03;;;24.23;100.00
10668;BME280;5382;42.136;24.796;2023-06-22T05:57:28;100151.28;;;24.24;100.00
10668;BME280;5382;42.136;24.796;2023-06-22T05:59:55;100153.94;;;24.38;100.00
10668;BME280;5382;42.136;24.796;2023-06-22T06:02:24;100153.91;;;24.53;100.00
10668;BME280;5382;42.136;24.796;2023-06-22T06:04:50;100155.81;;;24.59;100.00
10668;BME280;5382;42.136;24.796;2023-06-22T06:07:18;100141.28;;;24.61;100.00
10668;BME280;5382;42.136;24.796;2023-06-22T06:09:45;100155.31;;;24.71;100.00
10668;BME280;5382;42.136;24.796;2023-06-22T06:12:11;100158.28;;;24.83;100.00
10668;BME280;5382;42.136;24.796;2023-06-22T06:14:38;100151.63;;;24.85;100.00
10668;BME280;5382;42.136;24.796;2023-06-22T06:17:05;100154.69;;;25.03;100.00
10668;BME280;5382;42.136;24.796;2023-06-22T06:19:33;100151.19;;;25.10;100.00
10668;BME280;5382;42.136;24.796;2023-06-22T06:22:00;100158.13;;;25.19;100.00
10668;BME280;5382;42.136;24.796;2023-06-22T06:24:27;100155.25;;;25.27;100.00
10668;BME280;5382;42.136;24.796;2023-06-22T06:26:54;100149.94;;;25.40;100.00
10668;BME280;5382;42.136;24.796;2023-06-22T06:29:20;100155.19;;;25.49;100.00
10668;BME280;5382;42.136;24.796;2023-06-22T06:31:49;100150.63;;;25.56;100.00
10668;BME280;5382;42.136;24.796;2023-06-22T06:34:15;100138.78;;;25.70;100.00
10668;BME280;5382;42.136;24.796;2023-06-22T06:36:44;100146.31;;;25.75;100.00
10668;BME280;5382;42.136;24.796;2023-06-22T06:39:10;100150.09;;;25.80;100.00
10668;BME280;5382;42.136;24.796;2023-06-22T06:41:37;100148.06;;;25.96;100.00
10668;BME280;5382;42.136;24.796;2023-06-22T06:44:04;100157.69;;;25.98;100.00
10668;BME280;5382;42.136;24.796;2023-06-22T06:46:31;100148.94;;;26.03;100.00
10668;BME280;5382;42.136;24.796;2023-06-22T06:48:58;100162.72;;;26.15;100.00
10668;BME280;5382;42.136;24.796;2023-06-22T06:51:24;100151.25;;;26.19;100.00
10668;BME280;5382;42.136;24.796;2023-06-22T06:53:52;100145.44;;;26.29;100.00
10668;BME280;5382;42.136;24.796;2023-06-22T06:56:19;100145.63;;;26.41;100.00
10668;BME280;5382;42.136;24.796;2023-06-22T06:58:49;100145.06;;;26.52;100.00
10668;BME280;5382;42.136;24.796;2023-06-22T07:01:16;100146.91;;;26.71;100.00
10668;BME280;5382;42.136;24.796;2023-06-22T07:03:43;100135.00;;;26.86;100.00
10668;BME280;5382;42.136;24.796;2023-06-22T07:06:09;100138.75;;;26.91;100.00
10668;BME280;5382;42.136;24.796;2023-06-22T07:08:37;100137.91;;;27.04;100.00
10668;BME280;5382;42.136;24.796;2023-06-22T07:11:06;100135.16;;;27.17;100.00
10668;BME280;5382;42.136;24.796;2023-06-22T07:13:33;100119.06;;;27.16;100.00
10668;BME280;5382;42.136;24.796;2023-06-22T07:16:00;100128.19;;;27.41;100.00
10668;BME280;5382;42.136;24.796;2023-06-22T07:18:27;100142.56;;;27.55;100.00
10668;BME280;5382;42.136;24.796;2023-06-22T07:20:54;100135.88;;;27.58;100.00
10668;BME280;5382;42.136;24.796;2023-06-22T07:23:20;100140.41;;;27.71;100.00
10668;BME280;5382;42.136;24.796;2023-06-22T07:25:47;100135.38;;;27.81;100.00
10668;BME280;5382;42.136;24.796;2023-06-22T07:28:15;100137.84;;;27.89;100.00
10668;BME280;5382;42.136;24.796;2023-06-22T07:30:42;100138.63;;;27.96;100.00
10668;BME280;5382;42.136;24.796;2023-06-22T07:33:09;100139.81;;;28.07;100.00
10668;BME280;5382;42.136;24.796;2023-06-22T07:35:36;100150.47;;;28.09;100.00
10668;BME280;5382;42.136;24.796;2023-06-22T07:38:03;100149.16;;;28.18;100.00
10668;BME280;5382;42.136;24.796;2023-06-22T07:40:31;100101.81;;;27.94;100.00
10668;BME280;5382;42.136;24.796;2023-06-22T07:42:57;100150.47;;;28.09;100.00
10668;BME280;5382;42.136;24.796;2023-06-22T07:45:26;100150.34;;;27.97;100.00
10668;BME280;5382;42.136;24.796;2023-06-22T07:47:52;100162.44;;;28.01;100.00
10668;BME280;5382;42.136;24.796;2023-06-22T07:50:19;100147.84;;;27.95;100.00
10668;BME280;5382;42.136;24.796;2023-06-22T07:52:46;100149.25;;;28.04;100.00
10668;BME280;5382;42.136;24.796;2023-06-22T07:55:14;100132.66;;;28.13;100.00
10668;BME280;5382;42.136;24.796;2023-06-22T07:57:40;100129.84;;;28.26;100.00
10668;BME280;5382;42.136;24.796;2023-06-22T08:00:08;100139.41;;;28.35;95.14
10668;BME280;5382;42.136;24.796;2023-06-22T08:02:39;100132.03;;;28.42;92.24
10668;BME280;5382;42.136;24.796;2023-06-22T08:05:07;100140.56;;;28.53;94.51
10668;BME280;5382;42.136;24.796;2023-06-22T08:07:34;100134.59;;;28.62;91.42
10668;BME280;5382;42.136;24.796;2023-06-22T08:10:00;100130.94;;;28.75;92.23
10668;BME280;5382;42.136;24.796;2023-06-22T08:12:27;100126.63;;;28.86;87.79
10668;BME280;5382;42.136;24.796;2023-06-22T08:14:54;100134.44;;;29.01;86.90
10668;BME280;5382;42.136;24.796;2023-06-22T08:17:22;100119.50;;;29.10;85.71
10668;BME280;5382;42.136;24.796;2023-06-22T08:19:50;100123.59;;;29.19;80.37
10668;BME280;5382;42.136;24.796;2023-06-22T08:22:17;100118.91;;;29.26;79.37
10668;BME280;5382;42.136;24.796;2023-06-22T08:24:44;100121.25;;;29.23;78.50
10668;BME280;5382;42.136;24.796;2023-06-22T08:27:11;100123.66;;;29.31;73.63
10668;BME280;5382;42.136;24.796;2023-06-22T08:29:38;100116.63;;;29.42;75.86
10668;BME280;5382;42.136;24.796;2023-06-22T08:32:08;100113.09;;;29.53;75.84
10668;BME280;5382;42.136;24.796;2023-06-22T08:34:35;100116.53;;;29.67;73.23
10668;BME280;5382;42.136;24.796;2023-06-22T08:37:06;100114.53;;;29.74;72.61
10668;BME280;5382;42.136;24.796;2023-06-22T08:39:33;100107.09;;;29.81;70.88
10668;BME280;5382;42.136;24.796;2023-06-22T08:42:00;100107.75;;;29.95;69.48
10668;BME280;5382;42.136;24.796;2023-06-22T08:44:27;100095.81;;;30.08;68.37
10668;BME280;5382;42.136;24.796;2023-06-22T08:46:54;100096.56;;;30.27;68.03
10668;BME280;5382;42.136;24.796;2023-06-22T08:49:20;100114.16;;;30.42;67.51
10668;BME280;5382;42.136;24.796;2023-06-22T08:51:47;100094.47;;;30.52;67.11
10668;BME280;5382;42.136;24.796;2023-06-22T08:54:16;100099.91;;;30.64;67.11
10668;BME280;5382;42.136;24.796;2023-06-22T08:56:43;100101.94;;;30.80;65.53
10668;BME280;5382;42.136;24.796;2023-06-22T08:59:10;100093.63;;;30.87;64.41
10668;BME280;5382;42.136;24.796;2023-06-22T09:01:37;100093.25;;;30.95;63.22
10668;BME280;5382;42.136;24.796;2023-06-22T09:04:04;100094.56;;;31.16;62.50
10668;BME280;5382;42.136;24.796;2023-06-22T09:06:32;100095.13;;;31.42;60.86
10668;BME280;5382;42.136;24.796;2023-06-22T09:08:59;100098.53;;;31.37;59.07
10668;BME280;5382;42.136;24.796;2023-06-22T09:11:28;100089.97;;;31.45;59.12
10668;BME280;5382;42.136;24.796;2023-06-22T09:13:54;100089.47;;;31.60;58.53
10668;BME280;5382;42.136;24.796;2023-06-22T09:16:21;100079.44;;;31.66;57.73
10668;BME280;5382;42.136;24.796;2023-06-22T09:18:48;100083.50;;;31.80;56.29
10668;BME280;5382;42.136;24.796;2023-06-22T09:21:15;100093.13;;;31.94;55.26
10668;BME280;5382;42.136;24.796;2023-06-22T09:23:42;100087.72;;;32.00;53.46
10668;BME280;5382;42.136;24.796;2023-06-22T09:26:11;100076.94;;;31.93;53.27
10668;BME280;5382;42.136;24.796;2023-06-22T09:28:39;100090.47;;;32.16;52.69
10668;BME280;5382;42.136;24.796;2023-06-22T09:31:06;100085.59;;;32.35;52.08
10668;BME280;5382;42.136;24.796;2023-06-22T09:33:33;100080.13;;;32.52;51.39
10668;BME280;5382;42.136;24.796;2023-06-22T09:35:59;100082.91;;;32.74;49.87
10668;BME280;5382;42.136;24.796;2023-06-22T09:38:26;100079.50;;;32.84;50.79
10668;BME280;5382;42.136;24.796;2023-06-22T09:40:53;100069.50;;;32.95;50.08
10668;BME280;5382;42.136;24.796;2023-06-22T09:43:20;100062.44;;;33.21;49.71
10668;BME280;5382;42.136;24.796;2023-06-22T09:45:48;100072.19;;;33.34;52.35
10668;BME280;5382;42.136;24.796;2023-06-22T09:48:15;100067.53;;;33.34;51.08
10668;BME280;5382;42.136;24.796;2023-06-22T09:50:41;100060.88;;;33.52;54.16
10668;BME280;5382;42.136;24.796;2023-06-22T09:53:08;100059.78;;;33.26;50.10
10668;BME280;5382;42.136;24.796;2023-06-22T09:55:35;100067.97;;;33.48;51.60
10668;BME280;5382;42.136;24.796;2023-06-22T09:58:02;100064.97;;;33.72;48.96
10668;BME280;5382;42.136;24.796;2023-06-22T10:00:28;100050.28;;;33.88;49.76
10668;BME280;5382;42.136;24.796;2023-06-22T10:02:57;100070.72;;;34.02;48.74
10668;BME280;5382;42.136;24.796;2023-06-22T10:05:23;100061.97;;;34.05;47.39
10668;BME280;5382;42.136;24.796;2023-06-22T10:07:51;100067.31;;;34.17;48.95
10668;BME280;5382;42.136;24.796;2023-06-22T10:10:18;100057.06;;;34.07;48.17
10668;BME280;5382;42.136;24.796;2023-06-22T10:12:46;100059.28;;;34.48;52.63
10668;BME280;5382;42.136;24.796;2023-06-22T10:15:14;100059.06;;;34.55;48.42
10668;BME280;5382;42.136;24.796;2023-06-22T10:17:41;100054.19;;;34.62;44.88
10668;BME280;5382;42.136;24.796;2023-06-22T10:20:10;100055.34;;;34.71;43.81
10668;BME280;5382;42.136;24.796;2023-06-22T10:22:40;100031.72;;;34.33;43.72
10668;BME280;5382;42.136;24.796;2023-06-22T10:25:08;100055.38;;;34.39;43.77
10668;BME280;5382;42.136;24.796;2023-06-22T10:27:35;100049.78;;;34.23;43.21
10668;BME280;5382;42.136;24.796;2023-06-22T10:30:01;100044.84;;;34.25;43.07
10668;BME280;5382;42.136;24.796;2023-06-22T10:32:30;100037.84;;;34.45;43.03
10668;BME280;5382;42.136;24.796;2023-06-22T10:34:57;100034.75;;;34.73;43.87
10668;BME280;5382;42.136;24.796;2023-06-22T10:37:25;100033.75;;;35.00;44.50
10668;BME280;5382;42.136;24.796;2023-06-22T10:39:52;100026.22;;;35.43;41.75
10668;BME280;5382;42.136;24.796;2023-06-22T10:42:19;100025.56;;;35.10;41.47
10668;BME280;5382;42.136;24.796;2023-06-22T10:44:46;100019.91;;;35.53;41.20
10668;BME280;5382;42.136;24.796;2023-06-22T10:47:13;100019.34;;;35.51;44.29
10668;BME280;5382;42.136;24.796;2023-06-22T10:49:40;100023.44;;;35.38;44.17
10668;BME280;5382;42.136;24.796;2023-06-22T10:52:08;100012.31;;;35.02;45.65
10668;BME280;5382;42.136;24.796;2023-06-22T10:54:38;100010.63;;;34.91;47.07
10668;BME280;5382;42.136;24.796;2023-06-22T10:57:05;100007.56;;;34.87;46.82
10668;BME280;5382;42.136;24.796;2023-06-22T10:59:32;100008.19;;;35.05;48.26
10668;BME280;5382;42.136;24.796;2023-06-22T11:01:59;99997.19;;;35.00;47.85
10668;BME280;5382;42.136;24.796;2023-06-22T11:04:26;100001.31;;;34.44;48.83
10668;BME280;5382;42.136;24.796;2023-06-22T11:06:53;100001.81;;;34.89;46.82
10668;BME280;5382;42.136;24.796;2023-06-22T11:09:21;99999.75;;;35.16;45.27
10668;BME280;5382;42.136;24.796;2023-06-22T11:11:50;99994.63;;;35.71;45.71
10668;BME280;5382;42.136;24.796;2023-06-22T11:14:19;99995.16;;;36.14;42.98
10668;BME280;5382;42.136;24.796;2023-06-22T11:16:45;99990.06;;;36.78;43.16
10668;BME280;5382;42.136;24.796;2023-06-22T11:19:12;99999.78;;;37.25;42.83
10668;BME280;5382;42.136;24.796;2023-06-22T11:21:39;99989.84;;;37.29;42.15
10668;BME280;5382;42.136;24.796;2023-06-22T11:24:06;99988.63;;;37.50;41.70
10668;BME280;5382;42.136;24.796;2023-06-22T11:26:33;100001.13;;;37.77;39.60
10668;BME280;5382;42.136;24.796;2023-06-22T11:29:02;99989.31;;;37.66;40.99
10668;BME280;5382;42.136;24.796;2023-06-22T11:31:30;99991.97;;;36.87;41.17
10668;BME280;5382;42.136;24.796;2023-06-22T11:33:57;99981.63;;;36.43;40.69
10668;BME280;5382;42.136;24.796;2023-06-22T11:36:25;99992.69;;;36.23;42.95
10668;BME280;5382;42.136;24.796;2023-06-22T11:38:51;99978.66;;;35.89;42.12
10668;BME280;5382;42.136;24.796;2023-06-22T11:41:18;99993.47;;;35.57;42.00
10668;BME280;5382;42.136;24.796;2023-06-22T11:43:45;99990.19;;;35.60;43.21
10668;BME280;5382;42.136;24.796;2023-06-22T11:46:13;99995.00;;;35.07;41.32
10668;BME280;5382;42.136;24.796;2023-06-22T11:48:40;99988.75;;;35.22;41.98
10668;BME280;5382;42.136;24.796;2023-06-22T11:51:07;99991.56;;;35.68;44.18
10668;BME280;5382;42.136;24.796;2023-06-22T11:53:34;99984.09;;;35.37;43.98
10668;BME280;5382;42.136;24.796;2023-06-22T11:56:01;99968.88;;;35.04;44.86
10668;BME280;5382;42.136;24.796;2023-06-22T11:58:28;99984.66;;;35.29;45.02
10668;BME280;5382;42.136;24.796;2023-06-22T12:00:55;99984.16;;;36.04;44.67
10668;BME280;5382;42.136;24.796;2023-06-22T12:03:23;99979.28;;;36.81;45.36
10668;BME280;5382;42.136;24.796;2023-06-22T12:05:51;99979.00;;;37.38;43.18
10668;BME280;5382;42.136;24.796;2023-06-22T12:08:18;99980.94;;;37.37;39.24
10668;BME280;5382;42.136;24.796;2023-06-22T12:10:45;99968.19;;;36.97;38.92
10668;BME280;5382;42.136;24.796;2023-06-22T12:13:12;99968.09;;;36.47;39.58
10668;BME280;5382;42.136;24.796;2023-06-22T12:15:38;99975.88;;;36.14;40.51
10668;BME280;5382;42.136;24.796;2023-06-22T12:18:05;99972.59;;;36.02;39.90
10668;BME280;5382;42.136;24.796;2023-06-22T12:20:33;99961.88;;;36.91;43.78
10668;BME280;5382;42.136;24.796;2023-06-22T12:23:01;99956.03;;;37.47;40.04
10668;BME280;5382;42.136;24.796;2023-06-22T12:25:27;99936.16;;;37.50;39.93
10668;BME280;5382;42.136;24.796;2023-06-22T12:27:54;99958.03;;;38.34;39.62
10668;BME280;5382;42.136;24.796;2023-06-22T12:30:21;99945.09;;;38.78;38.33
10668;BME280;5382;42.136;24.796;2023-06-22T12:32:48;99951.41;;;39.59;38.60
10668;BME280;5382;42.136;24.796;2023-06-22T12:35:16;99944.78;;;40.07;37.52
10668;BME280;5382;42.136;24.796;2023-06-22T12:37:44;99934.50;;;40.07;36.31
10668;BME280;5382;42.136;24.796;2023-06-22T12:40:12;99935.34;;;40.22;36.13
10668;BME280;5382;42.136;24.796;2023-06-22T12:42:39;99936.59;;;40.43;35.87
10668;BME280;5382;42.136;24.796;2023-06-22T12:45:08;99931.00;;;38.98;35.21
10668;BME280;5382;42.136;24.796;2023-06-22T12:47:35;99932.44;;;38.72;36.70